createdAt,value
2022-10-26T00:00:05.775Z,98.66
2022-10-26T00:01:05.826Z,98.66
2022-10-26T00:02:05.912Z,98.75
2022-10-26T00:03:05.714Z,98.75
2022-10-26T00:04:05.715Z,98.66
2022-10-26T00:05:05.693Z,98.45
2022-10-26T00:06:05.691Z,98.45
2022-10-26T00:07:05.685Z,98.45
2022-10-26T00:08:05.656Z,98.66
2022-10-26T00:09:05.665Z,98.66
2022-10-26T00:10:05.633Z,98.66
2022-10-26T00:11:05.628Z,98.66
2022-10-26T00:12:05.625Z,98.66
2022-10-26T00:13:05.606Z,98.66
2022-10-26T00:14:05.608Z,98.75
2022-10-26T00:15:05.588Z,98.75
2022-10-26T00:16:05.581Z,98.75
2022-10-26T00:17:05.567Z,98.75
2022-10-26T00:18:05.554Z,98.86
2022-10-26T00:19:05.561Z,98.86
2022-10-26T00:20:05.528Z,98.86
2022-10-26T00:21:05.528Z,98.86
2022-10-26T00:22:05.508Z,98.96
2022-10-26T00:23:05.507Z,98.96
2022-10-26T00:24:05.548Z,99.06
2022-10-26T00:25:05.489Z,99.06
2022-10-26T00:26:05.467Z,98.86
2022-10-26T00:27:05.459Z,98.75
2022-10-26T00:28:05.439Z,98.66
2022-10-26T00:29:05.442Z,98.35
2022-10-26T00:30:05.419Z,98.35
2022-10-26T00:31:05.430Z,98.25
2022-10-26T00:32:05.400Z,98.14
2022-10-26T00:33:05.401Z,98.20
2022-10-26T00:34:05.379Z,98.30
2022-10-26T00:35:15.832Z,98.41
2022-10-26T00:36:06.378Z,98.50
2022-10-26T00:37:05.350Z,98.50
2022-10-26T00:38:05.335Z,98.61
2022-10-26T00:39:05.330Z,98.71
2022-10-26T00:40:05.313Z,98.71
2022-10-26T00:41:05.311Z,98.50
2022-10-26T00:42:05.292Z,98.50
2022-10-26T00:43:05.284Z,98.30
2022-10-26T00:44:05.352Z,98.30
2022-10-26T00:45:05.263Z,98.41
2022-10-26T00:46:05.251Z,98.50
2022-10-26T00:47:05.273Z,98.41
2022-10-26T00:48:05.231Z,98.20
2022-10-26T00:49:05.290Z,98.00
2022-10-26T00:50:05.214Z,97.89
2022-10-26T00:51:05.211Z,98.00
2022-10-26T00:52:05.192Z,98.10
2022-10-26T00:53:05.194Z,98.20
2022-10-26T00:54:05.182Z,98.30
2022-10-26T00:55:05.154Z,98.41
2022-10-26T00:56:05.144Z,98.41
2022-10-26T00:57:05.135Z,98.41
2022-10-26T00:58:05.124Z,98.50
2022-10-26T00:59:05.121Z,98.61
2022-10-26T01:00:05.115Z,98.61
2022-10-26T01:01:05.114Z,98.71
2022-10-26T01:02:05.098Z,98.81
2022-10-26T01:03:05.077Z,98.71
2022-10-26T01:04:05.178Z,98.61
2022-10-26T01:05:05.046Z,98.71
2022-10-26T01:06:05.036Z,98.71
2022-10-26T01:07:05.046Z,98.81
2022-10-26T01:08:05.017Z,98.91
2022-10-26T01:09:05.006Z,99.02
2022-10-26T01:10:05.024Z,99.22
2022-10-26T01:11:04.987Z,99.32
2022-10-26T01:12:04.994Z,99.42
2022-10-26T01:13:04.960Z,99.42
2022-10-26T01:14:04.969Z,99.02
2022-10-26T01:15:04.937Z,98.91
2022-10-26T01:16:04.936Z,98.81
2022-10-26T01:17:04.932Z,98.71
2022-10-26T01:18:04.908Z,98.71
2022-10-26T01:19:04.916Z,98.71
2022-10-26T01:20:04.889Z,98.71
2022-10-26T01:21:04.878Z,98.71
2022-10-26T01:22:04.887Z,98.50
2022-10-26T01:23:04.850Z,98.41
2022-10-26T01:24:04.851Z,98.20
2022-10-26T01:25:04.831Z,98.00
2022-10-26T01:26:04.840Z,97.89
2022-10-26T01:27:04.828Z,97.89
2022-10-26T01:28:04.800Z,97.89
2022-10-26T01:29:04.790Z,97.89
2022-10-26T01:30:04.781Z,97.80
2022-10-26T01:31:04.788Z,97.60
2022-10-26T01:32:04.759Z,97.60
2022-10-26T01:33:04.744Z,97.60
2022-10-26T01:34:04.740Z,97.80
2022-10-26T01:35:04.723Z,98.00
2022-10-26T01:36:04.723Z,98.20
2022-10-26T01:37:04.705Z,98.20
2022-10-26T01:38:04.699Z,98.41
2022-10-26T01:39:04.681Z,98.61
2022-10-26T01:40:04.682Z,98.50
2022-10-26T01:41:04.673Z,98.50
2022-10-26T01:42:04.670Z,98.50
2022-10-26T01:43:04.681Z,98.50
2022-10-26T01:44:04.635Z,98.30
2022-10-26T01:45:04.614Z,98.30
2022-10-26T01:46:04.613Z,98.20
2022-10-26T01:47:04.612Z,98.20
2022-10-26T01:48:04.604Z,98.20
2022-10-26T01:49:04.603Z,98.10
2022-10-26T01:50:04.566Z,98.10
2022-10-26T01:51:04.553Z,98.20
2022-10-26T01:52:04.553Z,98.41
2022-10-26T01:53:04.545Z,98.61
2022-10-26T01:54:04.525Z,98.61
2022-10-26T01:55:04.519Z,98.61
2022-10-26T01:56:04.506Z,98.61
2022-10-26T01:57:04.506Z,98.71
2022-10-26T01:58:04.479Z,98.71
2022-10-26T01:59:04.467Z,98.91
2022-10-26T02:00:04.487Z,98.81
2022-10-26T02:01:04.509Z,98.81
2022-10-26T02:02:04.437Z,98.81
2022-10-26T02:03:04.454Z,98.91
2022-10-26T02:04:04.460Z,98.71
2022-10-26T02:05:04.409Z,98.81
2022-10-26T02:06:04.397Z,98.91
2022-10-26T02:07:04.408Z,99.07
2022-10-26T02:08:04.368Z,99.32
2022-10-26T02:09:04.378Z,99.42
2022-10-26T02:10:04.369Z,99.42
2022-10-26T02:11:04.370Z,99.42
2022-10-26T02:12:04.351Z,99.32
2022-10-26T02:13:04.337Z,99.32
2022-10-26T02:14:04.343Z,99.22
2022-10-26T02:15:04.312Z,99.22
2022-10-26T02:16:04.300Z,99.02
2022-10-26T02:17:04.330Z,99.02
2022-10-26T02:18:04.260Z,98.91
2022-10-26T02:19:04.271Z,98.91
2022-10-26T02:20:04.259Z,98.91
2022-10-26T02:21:04.253Z,98.91
2022-10-26T02:22:04.221Z,98.91
2022-10-26T02:23:04.249Z,98.91
2022-10-26T02:24:04.262Z,98.91
2022-10-26T02:25:04.213Z,98.91
2022-10-26T02:26:04.223Z,98.91
2022-10-26T02:27:04.183Z,99.02
2022-10-26T02:28:04.172Z,99.11
2022-10-26T02:29:04.162Z,99.11
2022-10-26T02:30:04.173Z,98.91
2022-10-26T02:31:04.143Z,98.91
2022-10-26T02:32:04.113Z,98.81
2022-10-26T02:33:04.125Z,98.81
2022-10-26T02:34:04.112Z,98.81
2022-10-26T02:35:04.104Z,99.02
2022-10-26T02:36:04.087Z,99.11
2022-10-26T02:37:04.076Z,99.11
2022-10-26T02:38:04.077Z,99.22
2022-10-26T02:39:04.055Z,99.32
2022-10-26T02:40:04.046Z,99.52
2022-10-26T02:41:04.034Z,99.73
2022-10-26T02:42:04.015Z,99.83
2022-10-26T02:43:04.025Z,99.99
2022-10-26T02:44:04.007Z,99.99
2022-10-26T02:45:03.996Z,99.99
2022-10-26T02:46:03.986Z,99.99
2022-10-26T02:47:03.987Z,99.99
2022-10-26T02:48:03.946Z,99.93
2022-10-26T02:49:03.958Z,99.93
2022-10-26T02:50:03.940Z,99.83
2022-10-26T02:51:03.937Z,99.73
2022-10-26T02:52:03.918Z,99.83
2022-10-26T02:53:03.897Z,99.93
2022-10-26T02:54:03.898Z,99.99
2022-10-26T02:55:03.898Z,99.99
2022-10-26T02:56:03.881Z,99.99
2022-10-26T02:57:03.879Z,99.99
2022-10-26T02:58:03.840Z,99.99
2022-10-26T02:59:03.837Z,99.99
2022-10-26T03:00:03.866Z,99.99
2022-10-26T03:01:03.875Z,99.99
2022-10-26T03:02:03.798Z,99.99
2022-10-26T03:03:03.800Z,99.99
2022-10-26T03:04:03.861Z,99.99
2022-10-26T03:05:03.781Z,99.99
2022-10-26T03:06:04.050Z,99.99
2022-10-26T03:07:03.760Z,99.99
2022-10-26T03:08:03.731Z,99.99
2022-10-26T03:09:03.740Z,99.99
2022-10-26T03:10:03.729Z,99.99
2022-10-26T03:11:03.726Z,99.99
2022-10-26T03:12:03.729Z,99.99
2022-10-26T03:13:03.690Z,99.99
2022-10-26T03:14:03.669Z,99.99
2022-10-26T03:15:03.672Z,99.99
2022-10-26T03:16:04.383Z,99.99
2022-10-26T03:17:03.712Z,99.99
2022-10-26T03:18:03.710Z,99.99
2022-10-26T03:19:03.640Z,99.99
2022-10-26T03:20:03.610Z,99.99
2022-10-26T03:21:03.624Z,99.99
2022-10-26T03:22:03.592Z,99.99
2022-10-26T03:23:03.594Z,99.99
2022-10-26T03:24:03.584Z,99.99
2022-10-26T03:25:03.594Z,99.99
2022-10-26T03:26:03.564Z,99.99
2022-10-26T03:27:03.554Z,99.99
2022-10-26T03:28:03.544Z,99.99
2022-10-26T03:29:03.518Z,99.99
2022-10-26T03:30:03.515Z,99.99
2022-10-26T03:31:03.504Z,99.99
2022-10-26T03:32:03.485Z,99.99
2022-10-26T03:33:03.475Z,99.99
2022-10-26T03:34:03.454Z,99.99
2022-10-26T03:35:03.457Z,99.98
2022-10-26T03:36:03.446Z,99.88
2022-10-26T03:37:03.437Z,99.83
2022-10-26T03:38:03.427Z,99.73
2022-10-26T03:39:03.417Z,99.73
2022-10-26T03:40:03.403Z,99.73
2022-10-26T03:41:03.417Z,99.57
2022-10-26T03:42:03.370Z,99.52
2022-10-26T03:43:03.368Z,99.63
2022-10-26T03:44:03.358Z,99.52
2022-10-26T03:45:03.356Z,99.42
2022-10-26T03:46:03.347Z,99.42
2022-10-26T03:47:03.328Z,99.42
2022-10-26T03:48:03.321Z,99.52
2022-10-26T03:49:03.315Z,99.42
2022-10-26T03:50:03.401Z,99.32
2022-10-26T03:51:03.298Z,99.11
2022-10-26T03:52:03.267Z,99.22
2022-10-26T03:53:03.262Z,99.22
2022-10-26T03:54:03.240Z,99.22
2022-10-26T03:55:03.250Z,99.11
2022-10-26T03:56:03.228Z,99.02
2022-10-26T03:57:03.220Z,99.02
2022-10-26T03:58:03.210Z,99.02
2022-10-26T03:59:03.200Z,98.71
2022-10-26T04:00:03.210Z,98.71
2022-10-26T04:01:03.254Z,98.71
2022-10-26T04:02:03.151Z,98.71
2022-10-26T04:03:03.152Z,98.71
2022-10-26T04:04:03.193Z,98.61
2022-10-26T04:05:03.134Z,98.71
2022-10-26T04:06:03.111Z,98.61
2022-10-26T04:07:03.124Z,98.71
2022-10-26T04:08:03.186Z,98.81
2022-10-26T04:09:03.093Z,98.71
2022-10-26T04:10:03.075Z,98.61
2022-10-26T04:11:04.638Z,98.71
2022-10-26T04:12:03.060Z,98.81
2022-10-26T04:13:03.089Z,98.81
2022-10-26T04:14:03.042Z,98.91
2022-10-26T04:16:03.021Z,98.71
2022-10-26T04:17:03.723Z,98.81
2022-10-26T04:18:03.034Z,98.91
2022-10-26T04:19:02.982Z,98.91
2022-10-26T04:20:02.987Z,99.02
2022-10-26T04:21:02.966Z,99.11
2022-10-26T04:22:02.955Z,99.02
2022-10-26T04:23:02.957Z,99.02
2022-10-26T04:24:02.938Z,99.11
2022-10-26T04:25:02.919Z,99.02
2022-10-26T04:26:02.895Z,99.11
2022-10-26T04:27:02.910Z,99.02
2022-10-26T04:28:02.897Z,99.02
2022-10-26T04:29:02.887Z,99.02
2022-10-26T04:30:02.866Z,99.02
2022-10-26T04:31:02.863Z,99.02
2022-10-26T04:32:02.845Z,99.11
2022-10-26T04:33:02.848Z,99.11
2022-10-26T04:34:02.825Z,99.11
2022-10-26T04:35:02.821Z,99.11
2022-10-26T04:36:02.809Z,99.11
2022-10-26T04:37:02.815Z,99.22
2022-10-26T04:38:02.784Z,99.11
2022-10-26T04:39:02.758Z,99.11
2022-10-26T04:40:02.829Z,99.02
2022-10-26T04:41:02.751Z,99.02
2022-10-26T04:42:02.749Z,99.02
2022-10-26T04:43:02.739Z,99.11
2022-10-26T04:44:02.714Z,99.11
2022-10-26T04:45:02.726Z,99.11
2022-10-26T04:46:02.700Z,99.11
2022-10-26T04:47:02.710Z,99.11
2022-10-26T04:48:02.684Z,99.11
2022-10-26T04:49:02.660Z,98.91
2022-10-26T04:50:02.644Z,98.81
2022-10-26T04:51:02.637Z,98.71
2022-10-26T04:52:02.619Z,98.71
2022-10-26T04:53:02.630Z,98.71
2022-10-26T04:54:02.602Z,98.81
2022-10-26T04:55:02.599Z,98.81
2022-10-26T04:56:02.581Z,98.91
2022-10-26T04:57:02.581Z,99.02
2022-10-26T04:58:02.742Z,99.02
2022-10-26T04:59:02.551Z,98.97
2022-10-26T05:00:02.533Z,98.86
2022-10-26T05:01:02.571Z,98.91
2022-10-26T05:02:02.775Z,98.97
2022-10-26T05:03:02.513Z,98.97
2022-10-26T05:04:02.497Z,99.07
2022-10-26T05:06:02.484Z,99.27
2022-10-26T05:07:02.507Z,99.27
2022-10-26T05:08:02.465Z,99.27
2022-10-26T05:09:02.455Z,99.38
2022-10-26T05:10:02.441Z,99.38
2022-10-26T05:11:02.426Z,99.27
2022-10-26T05:12:02.431Z,99.27
2022-10-26T05:13:02.407Z,99.17
2022-10-26T05:14:02.405Z,99.27
2022-10-26T05:15:05.052Z,99.27
2022-10-26T05:16:03.365Z,99.27
2022-10-26T05:17:02.368Z,99.27
2022-10-26T05:18:02.357Z,99.27
2022-10-26T05:19:02.345Z,99.38
2022-10-26T05:20:02.340Z,99.27
2022-10-26T05:21:02.334Z,99.27
2022-10-26T05:22:02.318Z,99.27
2022-10-26T05:23:02.308Z,99.27
2022-10-26T05:24:02.450Z,99.38
2022-10-26T05:25:02.278Z,99.38
2022-10-26T05:26:02.278Z,99.48
2022-10-26T05:27:02.270Z,99.38
2022-10-26T05:28:02.238Z,99.38
2022-10-26T05:29:02.248Z,99.38
2022-10-26T05:30:02.313Z,99.38
2022-10-26T05:31:02.250Z,99.38
2022-10-26T05:32:02.200Z,99.38
2022-10-26T05:33:02.199Z,99.48
2022-10-26T05:34:02.200Z,99.38
2022-10-26T05:35:02.160Z,99.38
2022-10-26T05:36:02.169Z,99.38
2022-10-26T05:37:02.140Z,99.38
2022-10-26T05:38:02.150Z,99.48
2022-10-26T05:39:02.119Z,99.58
2022-10-26T05:40:02.131Z,99.48
2022-10-26T05:41:02.102Z,99.48
2022-10-26T05:42:02.092Z,99.48
2022-10-26T05:43:02.100Z,99.38
2022-10-26T05:44:02.093Z,99.48
2022-10-26T05:45:02.081Z,99.48
2022-10-26T05:46:02.070Z,99.27
2022-10-26T05:47:02.054Z,99.27
2022-10-26T05:48:03.040Z,99.27
2022-10-26T05:49:02.012Z,99.27
2022-10-26T05:50:02.019Z,99.38
2022-10-26T05:51:02.037Z,99.38
2022-10-26T05:52:01.990Z,99.38
2022-10-26T05:53:02.009Z,99.48
2022-10-26T05:54:01.975Z,99.38
2022-10-26T05:55:01.986Z,99.48
2022-10-26T05:56:04.897Z,99.48
2022-10-26T05:57:02.946Z,99.43
2022-10-26T05:58:01.935Z,99.43
2022-10-26T05:59:01.904Z,99.43
2022-10-26T06:00:01.937Z,99.43
2022-10-26T06:01:01.919Z,99.53
2022-10-26T06:02:02.127Z,99.53
2022-10-26T06:03:01.896Z,99.63
2022-10-26T06:04:01.866Z,99.84
2022-10-26T06:05:01.854Z,99.94
2022-10-26T06:06:04.024Z,99.99
2022-10-26T06:07:01.825Z,99.99
2022-10-26T06:08:01.836Z,99.99
2022-10-26T06:09:01.807Z,99.99
2022-10-26T06:10:01.812Z,99.99
2022-10-26T06:11:01.777Z,99.99
2022-10-26T06:12:01.790Z,99.99
2022-10-26T06:13:01.831Z,99.99
2022-10-26T06:14:01.776Z,99.99
2022-10-26T06:15:01.768Z,99.99
2022-10-26T06:16:01.870Z,99.99
2022-10-26T06:17:01.718Z,99.99
2022-10-26T06:18:01.711Z,99.99
2022-10-26T06:19:02.016Z,99.99
2022-10-26T06:20:01.757Z,99.99
2022-10-26T06:21:01.679Z,99.99
2022-10-26T06:22:01.670Z,99.99
2022-10-26T06:23:01.670Z,99.99
2022-10-26T06:24:01.648Z,99.99
2022-10-26T06:25:01.639Z,99.99
2022-10-26T06:26:01.734Z,99.99
2022-10-26T06:27:01.650Z,99.99
2022-10-26T06:28:01.621Z,99.99
2022-10-26T06:29:01.604Z,99.99
2022-10-26T06:30:01.590Z,99.99
2022-10-26T06:31:01.561Z,99.99
2022-10-26T06:32:01.571Z,99.99
2022-10-26T06:33:06.199Z,99.99
2022-10-26T06:34:02.552Z,99.94
2022-10-26T06:35:04.871Z,99.84
2022-10-26T06:36:02.533Z,99.74
2022-10-26T06:37:01.521Z,99.74
2022-10-26T06:38:01.518Z,99.63
2022-10-26T06:39:01.534Z,99.53
2022-10-26T06:40:01.481Z,99.43
2022-10-26T06:41:01.462Z,99.43
2022-10-26T06:42:01.456Z,99.33
2022-10-26T06:43:01.453Z,99.22
2022-10-26T06:44:01.432Z,99.22
2022-10-26T06:45:01.472Z,99.22
2022-10-26T06:46:01.414Z,99.22
2022-10-26T06:47:01.457Z,99.22
2022-10-26T06:48:01.416Z,99.22
2022-10-26T06:49:01.388Z,99.18
2022-10-26T06:50:01.386Z,99.33
2022-10-26T06:51:01.355Z,99.28
2022-10-26T06:52:01.344Z,99.38
2022-10-26T06:53:01.335Z,99.58
2022-10-26T06:54:01.345Z,99.58
2022-10-26T06:55:01.547Z,99.49
2022-10-26T06:56:01.316Z,99.49
2022-10-26T06:57:01.285Z,99.49
2022-10-26T06:58:01.279Z,99.28
2022-10-26T06:59:03.466Z,99.28
2022-10-26T07:00:02.269Z,99.18
2022-10-26T07:01:01.247Z,98.88
2022-10-26T07:02:04.215Z,98.88
2022-10-26T07:03:02.313Z,98.88
2022-10-26T07:04:01.246Z,98.88
2022-10-26T07:05:01.215Z,98.88
2022-10-26T07:06:01.210Z,98.88
2022-10-26T07:07:01.188Z,98.57
2022-10-26T07:08:01.178Z,98.37
2022-10-26T07:09:01.187Z,98.27
2022-10-26T07:10:01.156Z,98.27
2022-10-26T07:11:01.149Z,98.12
2022-10-26T07:12:01.130Z,98.02
2022-10-26T07:13:01.138Z,97.71
2022-10-26T07:14:01.120Z,97.81
2022-10-26T07:15:01.171Z,97.61
2022-10-26T07:16:01.107Z,97.61
2022-10-26T07:17:01.093Z,96.96
2022-10-26T07:18:01.091Z,96.75
2022-10-26T07:19:01.059Z,96.55
2022-10-26T07:20:01.041Z,96.00
2022-10-26T07:21:01.055Z,95.70
2022-10-26T07:22:01.021Z,95.29
2022-10-26T07:23:01.001Z,95.25
2022-10-26T07:24:01.012Z,95.04
2022-10-26T07:25:03.061Z,94.84
2022-10-26T07:26:01.002Z,94.64
2022-10-26T07:27:00.962Z,94.54
2022-10-26T07:28:00.973Z,94.54
2022-10-26T07:29:00.942Z,94.43
2022-10-26T07:30:00.973Z,94.49
2022-10-26T07:31:00.934Z,94.29
2022-10-26T07:32:00.932Z,94.19
2022-10-26T07:33:00.894Z,94.39
2022-10-26T07:34:00.914Z,94.59
2022-10-26T07:35:00.916Z,94.70
2022-10-26T07:36:00.885Z,94.70
2022-10-26T07:37:00.855Z,94.90
2022-10-26T07:38:00.853Z,95.20
2022-10-26T07:39:00.864Z,95.40
2022-10-26T07:40:05.604Z,95.50
2022-10-26T07:41:01.825Z,95.61
2022-10-26T07:42:00.819Z,95.71
2022-10-26T07:43:00.803Z,95.81
2022-10-26T07:44:00.815Z,96.01
2022-10-26T07:45:00.794Z,95.91
2022-10-26T07:46:00.777Z,95.30
2022-10-26T07:47:00.760Z,95.10
2022-10-26T07:48:00.760Z,95.10
2022-10-26T07:49:00.748Z,94.90
2022-10-26T07:50:00.739Z,94.70
2022-10-26T07:51:02.841Z,94.70
2022-10-26T07:52:00.708Z,94.49
2022-10-26T07:53:00.687Z,94.49
2022-10-26T07:54:00.689Z,94.19
2022-10-26T07:55:00.678Z,94.39
2022-10-26T07:56:00.669Z,94.55
2022-10-26T07:57:00.694Z,94.85
2022-10-26T07:58:01.186Z,94.75
2022-10-26T07:59:00.628Z,94.45
2022-10-26T08:00:00.630Z,94.14
2022-10-26T08:01:00.674Z,94.24
2022-10-26T08:02:00.639Z,94.45
2022-10-26T08:03:00.590Z,94.24
2022-10-26T08:04:00.597Z,94.55
2022-10-26T08:05:00.573Z,94.65
2022-10-26T08:06:00.580Z,93.94
2022-10-26T08:07:00.531Z,93.84
2022-10-26T08:08:00.530Z,93.90
2022-10-26T08:09:00.524Z,94.00
2022-10-26T08:10:00.521Z,94.20
2022-10-26T08:11:00.515Z,94.40
2022-10-26T08:12:00.483Z,94.50
2022-10-26T08:13:00.482Z,94.50
2022-10-26T08:14:00.481Z,94.10
2022-10-26T08:15:00.453Z,93.65
2022-10-26T08:16:00.484Z,93.65
2022-10-26T08:17:00.442Z,93.55
2022-10-26T08:18:00.423Z,93.24
2022-10-26T08:19:00.413Z,92.54
2022-10-26T08:20:00.424Z,92.33
2022-10-26T08:21:10.128Z,92.33
2022-10-26T08:22:01.409Z,92.24
2022-10-26T08:23:00.374Z,91.28
2022-10-26T08:24:00.393Z,91.18
2022-10-26T08:25:00.363Z,90.98
2022-10-26T08:26:00.343Z,90.88
2022-10-26T08:27:00.336Z,90.27
2022-10-26T08:28:00.327Z,90.53
2022-10-26T08:29:00.335Z,90.03
2022-10-26T08:30:00.321Z,90.03
2022-10-26T08:31:00.284Z,90.12
2022-10-26T08:32:00.285Z,90.03
2022-10-26T08:33:00.257Z,89.62
2022-10-26T08:34:00.302Z,89.42
2022-10-26T08:35:00.238Z,89.62
2022-10-26T08:36:00.378Z,89.37
2022-10-26T08:37:00.226Z,89.07
2022-10-26T08:38:00.221Z,89.07
2022-10-26T08:40:02.949Z,88.87
2022-10-26T08:41:00.188Z,89.07
2022-10-26T08:42:00.170Z,89.17
2022-10-26T08:43:00.158Z,89.07
2022-10-26T08:44:00.167Z,88.87
2022-10-26T08:45:00.137Z,88.87
2022-10-26T08:46:00.149Z,89.07
2022-10-26T08:47:00.108Z,88.57
2022-10-26T08:48:00.147Z,88.67
2022-10-26T08:49:00.089Z,88.67
2022-10-26T08:50:00.105Z,88.57
2022-10-26T08:51:00.088Z,88.77
2022-10-26T08:52:00.069Z,88.26
2022-10-26T08:53:00.090Z,87.96
2022-10-26T08:54:00.062Z,87.92
2022-10-26T08:55:00.054Z,88.02
2022-10-26T08:56:00.051Z,87.62
2022-10-26T08:57:00.013Z,88.02
2022-10-26T08:58:00.013Z,87.68
2022-10-26T08:59:00.003Z,87.88
2022-10-26T08:59:59.981Z,87.98
2022-10-26T09:01:00.050Z,87.38
2022-10-26T09:02:00.038Z,87.07
2022-10-26T09:02:59.952Z,86.93
2022-10-26T09:04:59.913Z,87.34
2022-10-26T09:05:59.944Z,87.23
2022-10-26T09:06:59.904Z,86.22
2022-10-26T09:07:59.925Z,86.08
2022-10-26T09:08:59.875Z,85.78
2022-10-26T09:09:59.869Z,85.68
2022-10-26T09:10:59.897Z,85.58
2022-10-26T09:11:59.855Z,85.44
2022-10-26T09:12:59.825Z,85.44
2022-10-26T09:14:00.073Z,85.24
2022-10-26T09:14:59.824Z,84.83
2022-10-26T09:15:59.857Z,84.89
2022-10-26T09:16:59.822Z,84.89
2022-10-26T09:17:59.798Z,84.39
2022-10-26T09:19:01.858Z,84.39
2022-10-26T09:19:59.772Z,83.75
2022-10-26T09:20:59.760Z,83.65
2022-10-26T09:21:59.747Z,83.95
2022-10-26T09:22:59.718Z,83.84
2022-10-26T09:23:59.746Z,83.84
2022-10-26T09:25:02.860Z,83.11
2022-10-26T09:26:00.818Z,83.20
2022-10-26T09:26:59.725Z,82.90
2022-10-26T09:27:59.709Z,82.80
2022-10-26T09:28:59.670Z,82.80
2022-10-26T09:29:59.661Z,82.90
2022-10-26T09:30:59.637Z,82.80
2022-10-26T09:31:59.641Z,82.60
2022-10-26T09:32:59.640Z,82.86
2022-10-26T09:33:59.610Z,82.26
2022-10-26T09:34:59.610Z,82.26
2022-10-26T09:35:59.687Z,82.26
2022-10-26T09:36:59.592Z,82.80
2022-10-26T09:37:59.575Z,82.40
2022-10-26T09:38:59.573Z,83.00
2022-10-26T09:39:59.544Z,83.81
2022-10-26T09:40:59.531Z,83.11
2022-10-26T09:41:59.544Z,81.73
2022-10-26T09:42:59.532Z,81.23
2022-10-26T09:43:59.494Z,81.70
2022-10-26T09:44:59.503Z,81.90
2022-10-26T09:45:59.514Z,81.90
2022-10-26T09:46:59.473Z,81.99
2022-10-26T09:48:02.674Z,81.19
2022-10-26T09:49:00.510Z,81.35
2022-10-26T09:49:59.446Z,81.26
2022-10-26T09:51:02.043Z,80.55
2022-10-26T09:52:00.486Z,80.61
2022-10-26T09:52:59.427Z,80.81
2022-10-26T09:53:59.406Z,80.98
2022-10-26T09:54:59.396Z,80.27
2022-10-26T09:55:59.387Z,79.43
2022-10-26T09:56:59.366Z,79.83
2022-10-26T09:57:59.348Z,79.73
2022-10-26T09:58:59.377Z,78.99
2022-10-26T09:59:59.327Z,78.09
2022-10-26T10:00:59.337Z,77.89
2022-10-26T10:01:59.347Z,78.19
2022-10-26T10:02:59.345Z,78.19
2022-10-26T10:03:59.328Z,78.89
2022-10-26T10:04:59.278Z,78.99
2022-10-26T10:05:59.288Z,79.39
2022-10-26T10:06:59.259Z,79.69
2022-10-26T10:07:59.260Z,79.23
2022-10-26T10:08:59.243Z,78.42
2022-10-26T10:09:59.238Z,78.93
2022-10-26T10:10:59.234Z,79.23
2022-10-26T10:11:59.200Z,78.93
2022-10-26T10:12:59.212Z,78.73
2022-10-26T10:13:59.192Z,78.33
2022-10-26T10:14:59.202Z,77.83
2022-10-26T10:15:59.181Z,77.42
2022-10-26T10:16:59.162Z,77.32
2022-10-26T10:17:59.522Z,77.42
2022-10-26T10:18:59.142Z,76.89
2022-10-26T10:19:59.133Z,76.89
2022-10-26T10:20:59.127Z,76.89
2022-10-26T10:21:59.094Z,76.75
2022-10-26T10:22:59.123Z,76.34
2022-10-26T10:23:59.074Z,75.74
2022-10-26T10:24:59.067Z,75.51
2022-10-26T10:25:59.074Z,75.10
2022-10-26T10:26:59.054Z,74.87
2022-10-26T10:27:59.055Z,74.97
2022-10-26T10:28:59.037Z,74.33
2022-10-26T10:30:03.078Z,74.13
2022-10-26T10:31:00.006Z,74.03
2022-10-26T10:31:58.996Z,73.83
2022-10-26T10:32:58.996Z,74.03
2022-10-26T10:33:58.967Z,74.33
2022-10-26T10:34:58.967Z,73.80
2022-10-26T10:35:58.965Z,74.60
2022-10-26T10:36:58.941Z,74.40
2022-10-26T10:37:58.937Z,73.16
2022-10-26T10:38:58.957Z,73.36
2022-10-26T10:39:59.018Z,73.56
2022-10-26T10:40:58.909Z,72.66
2022-10-26T10:41:58.896Z,72.56
2022-10-26T10:42:58.878Z,73.06
2022-10-26T10:43:58.890Z,73.46
2022-10-26T10:44:58.871Z,73.66
2022-10-26T10:45:59.792Z,73.06
2022-10-26T10:46:59.848Z,73.56
2022-10-26T10:47:58.830Z,72.83
2022-10-26T10:48:58.839Z,72.92
2022-10-26T10:49:58.810Z,72.63
2022-10-26T10:50:58.813Z,72.99
2022-10-26T10:51:58.791Z,72.79
2022-10-26T10:52:58.774Z,72.29
2022-10-26T10:53:58.782Z,72.39
2022-10-26T10:54:58.763Z,72.69
2022-10-26T10:55:58.755Z,72.89
2022-10-26T10:56:58.753Z,73.09
2022-10-26T10:57:58.724Z,73.19
2022-10-26T10:58:58.705Z,72.89
2022-10-26T10:59:58.694Z,71.59
2022-10-26T11:00:58.696Z,71.39
2022-10-26T11:01:58.804Z,72.29
2022-10-26T11:02:58.665Z,70.89
2022-10-26T11:03:58.676Z,70.89
2022-10-26T11:04:58.646Z,70.49
2022-10-26T11:05:58.639Z,70.49
2022-10-26T11:06:58.626Z,70.39
2022-10-26T11:07:58.616Z,70.69
2022-10-26T11:08:58.638Z,70.59
2022-10-26T11:09:58.590Z,70.59
2022-10-26T11:10:58.577Z,70.49
2022-10-26T11:11:58.567Z,71.09
2022-10-26T11:12:58.578Z,71.46
2022-10-26T11:13:58.570Z,70.16
2022-10-26T11:14:58.549Z,70.53
2022-10-26T11:15:58.540Z,69.32
2022-10-26T11:16:58.519Z,68.99
2022-10-26T11:17:58.518Z,69.09
2022-10-26T11:18:58.520Z,68.29
2022-10-26T11:19:58.489Z,68.19
2022-10-26T11:21:58.453Z,68.86
2022-10-26T11:22:58.561Z,68.46
2022-10-26T11:23:58.442Z,68.66
2022-10-26T11:24:58.448Z,68.56
2022-10-26T11:25:58.462Z,68.23
2022-10-26T11:26:58.410Z,67.93
2022-10-26T11:27:58.402Z,67.50
2022-10-26T11:28:58.384Z,67.70
2022-10-26T11:29:58.373Z,66.97
2022-10-26T11:30:58.372Z,66.57
2022-10-26T11:31:58.350Z,66.04
2022-10-26T11:32:58.344Z,66.01
2022-10-26T11:33:58.335Z,65.91
2022-10-26T11:34:58.354Z,66.08
2022-10-26T11:35:58.315Z,65.25
2022-10-26T11:36:58.314Z,65.61
2022-10-26T11:37:58.316Z,63.17
2022-10-26T11:38:59.236Z,61.72
2022-10-26T11:39:58.268Z,60.93
2022-10-26T11:40:58.287Z,62.02
2022-10-26T11:41:58.257Z,61.94
2022-10-26T11:42:58.257Z,61.05
2022-10-26T11:43:58.238Z,61.38
2022-10-26T11:44:58.234Z,61.88
2022-10-26T11:46:58.229Z,61.91
2022-10-26T11:47:58.192Z,61.83
2022-10-26T11:48:58.182Z,62.04
2022-10-26T11:49:58.160Z,61.17
2022-10-26T11:50:58.160Z,61.96
2022-10-26T11:51:58.181Z,62.76
2022-10-26T11:52:58.169Z,62.56
2022-10-26T11:53:58.132Z,62.04
2022-10-26T11:54:58.112Z,62.21
2022-10-26T11:55:58.123Z,62.50
2022-10-26T11:56:58.093Z,61.08
2022-10-26T11:57:58.095Z,60.88
2022-10-26T11:58:58.119Z,60.98
2022-10-26T11:59:58.085Z,60.66
2022-10-26T12:00:58.053Z,60.72
2022-10-26T12:01:58.035Z,59.38
2022-10-26T12:02:58.047Z,57.35
2022-10-26T12:03:58.025Z,53.44
2022-10-26T12:04:58.056Z,51.30
2022-10-26T12:05:57.995Z,51.50
2022-10-26T12:06:57.995Z,53.03
2022-10-26T12:07:57.987Z,54.79
2022-10-26T12:08:57.967Z,56.72
2022-10-26T12:09:57.968Z,57.97
2022-10-26T12:10:57.998Z,57.99
2022-10-26T12:11:57.983Z,58.02
2022-10-26T12:12:57.938Z,59.74
2022-10-26T12:13:57.907Z,60.13
2022-10-26T12:14:57.909Z,59.17
2022-10-26T12:16:03.457Z,59.36
2022-10-26T12:16:58.880Z,59.76
2022-10-26T12:17:57.863Z,60.09
2022-10-26T12:18:57.871Z,60.56
2022-10-26T12:19:57.873Z,60.56
2022-10-26T12:20:57.842Z,60.63
2022-10-26T12:21:57.831Z,59.31
2022-10-26T12:22:57.812Z,59.01
2022-10-26T12:23:57.811Z,58.98
2022-10-26T12:24:57.803Z,58.43
2022-10-26T12:25:57.803Z,57.31
2022-10-26T12:26:57.792Z,54.65
2022-10-26T12:27:57.774Z,50.21
2022-10-26T12:28:57.752Z,50.29
2022-10-26T12:29:57.735Z,51.00
2022-10-26T12:30:57.733Z,51.62
2022-10-26T12:31:57.755Z,53.34
2022-10-26T12:32:57.732Z,53.86
2022-10-26T12:33:57.727Z,53.50
2022-10-26T12:34:57.697Z,54.41
2022-10-26T12:35:57.801Z,55.62
2022-10-26T12:36:57.672Z,55.15
2022-10-26T12:37:57.687Z,55.75
2022-10-26T12:38:57.668Z,56.37
2022-10-26T12:39:57.647Z,56.37
2022-10-26T12:40:57.630Z,56.57
2022-10-26T12:41:57.630Z,56.99
2022-10-26T12:42:57.660Z,57.88
2022-10-26T12:43:57.602Z,57.41
2022-10-26T12:44:57.590Z,57.81
2022-10-26T12:45:57.580Z,58.73
2022-10-26T12:46:57.581Z,58.83
2022-10-26T12:47:57.555Z,59.03
2022-10-26T12:48:57.583Z,58.73
2022-10-26T12:49:57.541Z,58.53
2022-10-26T12:50:57.523Z,58.83
2022-10-26T12:51:57.566Z,58.73
2022-10-26T12:52:57.527Z,58.23
2022-10-26T12:53:57.504Z,58.23
2022-10-26T12:54:57.511Z,57.64
2022-10-26T12:55:57.486Z,58.11
2022-10-26T12:56:57.545Z,56.69
2022-10-26T12:57:57.445Z,57.29